Time;durP1;ratioP1;P1;durP2;ratioP2;P2;SDS_P1;SDS_P2;PMS_P1;PMS_P2;Temp;Humidity;BMP_temperature;BMP_pressure;BME280_temperature;BME280_humidity;BME280_pressure;Samples;Min_cycle;Max_cycle;Signal;HPM_P1;HPM_P2
2022/09/10 00:01:06;;;;;;;;;;;16.00;99.90;;;;;;5110035;28;19912;-78
2022/09/10 00:03:31;;;;;;;;;;;16.00;99.90;;;;;;5109183;28;19918;-79
2022/09/10 00:05:57;;;;;;;;;;;16.00;99.90;;;;;;5098763;28;19919;-82
2022/09/10 00:08:23;;;;;;;;;;;16.00;99.90;;;;;;5108108;28;19922;-80
2022/09/10 00:10:50;;;;;;;;;;;16.10;99.90;;;;;;5107959;28;19919;-81
2022/09/10 00:13:17;;;;;;;;;;;16.00;99.90;;;;;;5110634;28;19985;-81
2022/09/10 00:15:50;;;;;;;;;;;16.00;99.90;;;;;;5086886;28;20338;-78
2022/09/10 00:18:16;;;;;;;;;;;16.10;99.90;;;;;;5083195;28;19928;-79
2022/09/10 00:20:46;;;;;;;;;;;16.00;99.90;;;;;;5082411;28;20311;-79
2022/09/10 00:23:12;;;;;;;;;;;16.00;99.90;;;;;;5086909;28;19949;-78
2022/09/10 00:25:38;;;;;;;;;;;16.10;99.90;;;;;;5089580;28;19916;-79
2022/09/10 00:28:04;;;;;;;;;;;16.00;99.90;;;;;;5079201;28;19919;-83
2022/09/10 00:30:29;;;;;;;;;;;16.10;99.90;;;;;;5075579;28;19912;-79
2022/09/10 00:32:55;;;;;;;;;;;16.10;99.90;;;;;;5091841;28;19920;-76
2022/09/10 00:35:20;;;;;;;;;;;16.00;99.90;;;;;;5093844;28;20302;-77
2022/09/10 00:37:46;;;;;;;;;;;16.00;99.90;;;;;;5084124;28;20002;-77
2022/09/10 00:40:13;;;;;;;;;;;16.00;99.90;;;;;;5094063;28;19912;-79
2022/09/10 00:42:41;;;;;;;;;;;16.10;99.90;;;;;;5077190;28;19970;-79
2022/09/10 00:45:06;;;;;;;;;;;16.00;99.90;;;;;;5082654;28;19966;-79
2022/09/10 00:47:38;;;;;;;;;;;16.00;99.90;;;;;;5087760;28;20310;-78
2022/09/10 00:50:04;;;;;;;;;;;16.00;99.90;;;;;;5093162;28;19943;-79
2022/09/10 00:52:30;;;;;;;;;;;16.10;99.90;;;;;;5089091;28;20234;-80
2022/09/10 00:54:56;;;;;;;;;;;16.00;99.90;;;;;;5081578;28;19912;-82
2022/09/10 00:57:22;;;;;;;;;;;16.00;99.90;;;;;;5077528;28;20268;-81
2022/09/10 00:59:50;;;;;;;;;;;16.00;99.90;;;;;;5080803;28;19916;-81
2022/09/10 01:02:15;;;;;;;;;;;16.00;99.90;;;;;;5083553;28;20260;-82
2022/09/10 01:04:41;;;;;;;;;;;16.00;99.90;;;;;;5084794;28;20049;-83
2022/09/10 01:07:08;;;;;;;;;;;16.00;99.90;;;;;;5087907;28;20278;-79
2022/09/10 01:09:34;;;;;;;;;;;15.90;99.90;;;;;;5086110;28;19969;-79
2022/09/10 01:12:02;;;;;;;;;;;15.90;99.90;;;;;;5086521;28;20371;-83
2022/09/10 01:14:31;;;;;;;;;;;15.90;99.90;;;;;;5093027;28;19916;-81
2022/09/10 01:17:02;;;;;;;;;;;15.90;99.90;;;;;;5084100;28;19920;-82
2022/09/10 01:19:55;;;;;;;;;;;15.80;99.90;;;;;;5083414;28;19928;-81
2022/09/10 01:22:21;;;;;;;;;;;15.80;99.90;;;;;;5083192;28;19943;-84
2022/09/10 01:24:53;;;;;;;;;;;15.80;99.90;;;;;;5079517;28;20057;-87
2022/09/10 01:27:38;;;;;;;;;;;15.80;99.90;;;;;;5083150;28;19916;-87
2022/09/10 01:30:13;;;;;;;;;;;15.80;99.90;;;;;;5083845;28;20380;-87
2022/09/10 01:32:38;;;;;;;;;;;15.70;99.90;;;;;;5085688;28;19920;-82
2022/09/10 01:35:04;;;;;;;;;;;15.70;99.90;;;;;;5083035;28;19965;-83
2022/09/10 01:37:30;;;;;;;;;;;15.70;99.90;;;;;;5081951;28;20238;-80
2022/09/10 01:39:57;;;;;;;;;;;15.70;99.90;;;;;;5081403;28;19938;-87
2022/09/10 01:42:24;;;;;;;;;;;15.70;99.90;;;;;;5078924;28;20036;-83
2022/09/10 01:44:50;;;;;;;;;;;15.70;99.90;;;;;;5075842;28;19920;-85
2022/09/10 01:47:31;;;;;;;;;;;15.70;99.90;;;;;;5075560;28;19919;-78
2022/09/10 01:50:16;;;;;;;;;;;15.60;99.90;;;;;;5083060;28;20211;-80
2022/09/10 01:52:58;;;;;;;;;;;15.80;99.90;;;;;;5080449;28;19916;-85
2022/09/10 01:55:23;;;;;;;;;;;15.60;99.90;;;;;;5078179;28;20432;-83
2022/09/10 01:57:51;;;;;;;;;;;15.60;99.90;;;;;;5080725;28;20011;-86
2022/09/10 02:00:18;;;;;;;;;;;15.60;99.90;;;;;;5080105;28;19913;-81
2022/09/10 02:02:43;;;;;;;;;;;15.60;99.90;;;;;;5079596;28;19965;-83
2022/09/10 02:05:10;;;;;;;;;;;15.50;99.90;;;;;;5074923;28;19913;-82
2022/09/10 02:07:36;;;;;;;;;;;15.50;99.90;;;;;;5077666;28;19920;-76
2022/09/10 02:10:04;;;;;;;;;;;15.50;99.90;;;;;;5075721;28;19912;-78
2022/09/10 02:12:30;;;;;;;;;;;15.50;99.90;;;;;;5076054;28;19919;-83
2022/09/10 02:14:56;;;;;;;;;;;15.50;99.90;;;;;;5087629;28;19966;-80
2022/09/10 02:17:25;;;;;;;;;;;15.50;99.90;;;;;;5083532;28;19988;-80
2022/09/10 02:19:52;;;;;;;;;;;15.50;99.90;;;;;;5075913;28;19920;-82
2022/09/10 02:22:19;;;;;;;;;;;15.50;99.90;;;;;;5082999;28;20007;-77
2022/09/10 02:24:45;;;;;;;;;;;15.50;99.90;;;;;;5090903;28;19919;-80
2022/09/10 02:27:13;;;;;;;;;;;15.50;99.90;;;;;;5080243;28;19912;-79
2022/09/10 02:29:39;;;;;;;;;;;15.50;99.90;;;;;;5076163;28;20278;-80
2022/09/10 02:32:05;;;;;;;;;;;15.50;99.90;;;;;;5076188;28;19934;-81
2022/09/10 02:34:31;;;;;;;;;;;15.40;99.90;;;;;;5081051;28;19923;-79
2022/09/10 02:36:57;;;;;;;;;;;15.50;99.90;;;;;;5087191;28;19912;-83
2022/09/10 02:39:23;;;;;;;;;;;15.50;99.90;;;;;;5095609;28;19920;-79
2022/09/10 02:41:49;;;;;;;;;;;15.40;99.90;;;;;;5093796;28;19951;-81
2022/09/10 02:44:14;;;;;;;;;;;15.40;99.90;;;;;;5091052;28;19974;-79
2022/09/10 02:46:40;;;;;;;;;;;15.50;99.90;;;;;;5082872;28;19920;-81
2022/09/10 02:49:06;;;;;;;;;;;15.50;99.90;;;;;;5094239;28;19908;-80
2022/09/10 02:51:32;;;;;;;;;;;15.40;99.90;;;;;;5096084;28;19909;-82
2022/09/10 02:53:57;;;;;;;;;;;15.40;99.90;;;;;;5093193;28;20273;-81
2022/09/10 02:56:23;;;;;;;;;;;15.40;99.90;;;;;;5086229;28;19924;-76
2022/09/10 02:58:48;;;;;;;;;;;15.40;99.90;;;;;;5090737;28;19916;-77
2022/09/10 03:01:17;;;;;;;;;;;15.40;99.90;;;;;;5081495;28;20000;-78
2022/09/10 03:03:42;;;;;;;;;;;15.50;99.90;;;;;;5076609;28;19919;-79
2022/09/10 03:06:08;;;;;;;;;;;15.40;99.90;;;;;;5087024;28;19917;-81
2022/09/10 03:08:34;;;;;;;;;;;15.50;99.90;;;;;;5081885;28;19916;-74
2022/09/10 03:11:00;;;;;;;;;;;15.50;99.90;;;;;;5092257;28;19935;-83
2022/09/10 03:13:29;;;;;;;;;;;15.40;99.90;;;;;;5091484;28;19916;-78
2022/09/10 03:15:54;;;;;;;;;;;15.50;99.90;;;;;;5087967;28;19912;-76
2022/09/10 03:18:23;;;;;;;;;;;15.50;99.90;;;;;;5091084;28;19935;-77
2022/09/10 03:20:49;;;;;;;;;;;15.60;99.90;;;;;;5109643;28;19915;-78
2022/09/10 03:23:15;;;;;;;;;;;15.50;99.90;;;;;;5110473;28;19916;-76
2022/09/10 03:25:40;;;;;;;;;;;15.50;99.90;;;;;;5114970;28;19919;-80
2022/09/10 03:28:06;;;;;;;;;;;15.50;99.90;;;;;;5108110;28;19934;-78
2022/09/10 03:30:32;;;;;;;;;;;15.50;99.90;;;;;;5088147;28;19912;-79
2022/09/10 03:32:57;;;;;;;;;;;15.50;99.90;;;;;;5107036;28;19920;-80
2022/09/10 03:35:23;;;;;;;;;;;15.50;99.90;;;;;;5084352;28;19961;-81
2022/09/10 03:37:49;;;;;;;;;;;15.50;99.90;;;;;;5108699;28;19916;-80
2022/09/10 03:40:14;;;;;;;;;;;15.50;99.90;;;;;;5113985;28;19916;-78
2022/09/10 03:42:41;;;;;;;;;;;15.50;99.90;;;;;;5115047;28;19912;-79
2022/09/10 03:45:07;;;;;;;;;;;15.60;99.90;;;;;;5109571;28;19916;-78
2022/09/10 03:47:32;;;;;;;;;;;15.60;99.90;;;;;;5111287;28;19980;-79
2022/09/10 03:49:58;;;;;;;;;;;15.50;99.90;;;;;;5103079;28;19923;-77
2022/09/10 03:52:25;;;;;;;;;;;15.50;99.90;;;;;;5092138;28;19916;-81
2022/09/10 03:54:51;;;;;;;;;;;15.60;99.90;;;;;;5087096;28;19946;-81
2022/09/10 03:57:16;;;;;;;;;;;15.60;99.90;;;;;;5106641;28;19948;-78
2022/09/10 03:59:42;;;;;;;;;;;15.60;99.90;;;;;;5089771;28;20230;-78
2022/09/10 04:02:10;;;;;;;;;;;15.60;99.90;;;;;;5099014;28;19916;-80
2022/09/10 04:04:36;;;;;;;;;;;15.60;99.90;;;;;;5111957;28;19912;-78
2022/09/10 04:07:04;;;;;;;;;;;15.60;99.90;;;;;;5106203;28;19961;-78
2022/09/10 04:09:31;;;;;;;;;;;15.60;99.90;;;;;;5092562;28;19916;-77
2022/09/10 04:11:57;;;;;;;;;;;15.70;99.90;;;;;;5103999;28;19915;-77
2022/09/10 04:14:23;;;;;;;;;;;15.60;99.90;;;;;;5094424;28;19992;-82
2022/09/10 04:16:48;;;;;;;;;;;15.70;99.90;;;;;;5101745;28;20010;-79
2022/09/10 04:19:14;;;;;;;;;;;15.80;99.90;;;;;;5114561;28;19923;-86
2022/09/10 04:21:40;;;;;;;;;;;15.80;99.90;;;;;;5091815;28;19950;-86
2022/09/10 04:24:08;;;;;;;;;;;15.90;99.90;;;;;;5116561;28;19915;-79
2022/09/10 04:26:33;;;;;;;;;;;15.80;99.90;;;;;;5089931;28;19912;-87
2022/09/10 04:28:59;;;;;;;;;;;15.80;99.90;;;;;;5096789;28;20207;-86
2022/09/10 04:31:24;;;;;;;;;;;15.80;99.90;;;;;;5097530;28;19916;-83
2022/09/10 04:33:50;;;;;;;;;;;15.80;99.90;;;;;;5092898;28;19923;-81
2022/09/10 04:36:16;;;;;;;;;;;15.80;99.90;;;;;;5083384;28;19919;-76
2022/09/10 04:38:42;;;;;;;;;;;15.80;99.90;;;;;;5086721;28;19912;-85
2022/09/10 04:41:08;;;;;;;;;;;15.80;99.90;;;;;;5094386;28;20010;-86
2022/09/10 04:43:33;;;;;;;;;;;15.80;99.90;;;;;;5083592;28;19912;-88
2022/09/10 04:45:59;;;;;;;;;;;15.70;99.90;;;;;;5111316;28;20288;-88
2022/09/10 04:48:25;;;;;;;;;;;15.80;99.90;;;;;;5106913;28;20428;-83
2022/09/10 04:50:50;;;;;;;;;;;15.90;99.90;;;;;;5079391;28;19918;-80
2022/09/10 04:53:16;;;;;;;;;;;15.80;99.90;;;;;;5093060;28;19916;-85
2022/09/10 04:55:43;;;;;;;;;;;15.90;99.90;;;;;;5107172;28;20260;-85
2022/09/10 04:58:09;;;;;;;;;;;15.90;99.90;;;;;;5109836;28;19923;-82
2022/09/10 05:00:35;;;;;;;;;;;16.00;99.90;;;;;;5110290;28;19916;-80
2022/09/10 05:03:00;;;;;;;;;;;16.00;99.90;;;;;;5100407;28;20248;-81
2022/09/10 05:05:27;;;;;;;;;;;16.00;99.90;;;;;;5109351;28;19950;-83
2022/09/10 05:07:53;;;;;;;;;;;16.00;99.90;;;;;;5097460;28;20294;-80
2022/09/10 05:10:20;;;;;;;;;;;16.10;99.90;;;;;;5095838;28;19952;-82
2022/09/10 05:12:47;;;;;;;;;;;16.10;99.90;;;;;;5080819;28;19958;-82
2022/09/10 05:15:12;;;;;;;;;;;16.10;99.90;;;;;;5105939;28;19950;-85
2022/09/10 05:17:38;;;;;;;;;;;16.10;99.90;;;;;;5106838;28;20451;-79
2022/09/10 05:20:06;;;;;;;;;;;16.20;99.90;;;;;;5080435;28;19920;-83
2022/09/10 05:22:33;;;;;;;;;;;16.20;99.90;;;;;;5098385;28;19919;-79
2022/09/10 05:24:59;;;;;;;;;;;16.20;99.90;;;;;;5107603;28;19919;-83
2022/09/10 05:27:24;;;;;;;;;;;16.20;99.90;;;;;;5085700;28;19920;-86
2022/09/10 05:29:50;;;;;;;;;;;16.20;99.90;;;;;;5101912;28;20218;-85
2022/09/10 05:32:17;;;;;;;;;;;16.20;99.90;;;;;;5082939;28;20204;-77
2022/09/10 05:34:44;;;;;;;;;;;16.20;99.90;;;;;;5088685;28;19920;-82
2022/09/10 05:37:10;;;;;;;;;;;16.30;99.90;;;;;;5078886;28;19916;-82
2022/09/10 05:39:36;;;;;;;;;;;16.30;99.90;;;;;;5094267;28;20203;-79
2022/09/10 05:42:02;;;;;;;;;;;16.30;99.90;;;;;;5098736;28;19919;-83
2022/09/10 05:44:28;;;;;;;;;;;16.30;99.90;;;;;;5077684;28;19918;-78
2022/09/10 05:46:53;;;;;;;;;;;16.30;99.90;;;;;;5098782;28;20010;-81
2022/09/10 05:49:19;;;;;;;;;;;16.30;99.90;;;;;;5105532;28;19920;-82
2022/09/10 05:51:45;;;;;;;;;;;16.30;99.90;;;;;;5080607;28;19931;-83
2022/09/10 05:54:11;;;;;;;;;;;16.30;99.90;;;;;;5118361;27;19912;-83
2022/09/10 05:56:37;;;;;;;;;;;16.30;99.90;;;;;;5095203;28;19912;-83
2022/09/10 05:59:05;;;;;;;;;;;16.30;99.90;;;;;;5076657;28;20191;-80
2022/09/10 06:01:31;;;;;;;;;;;16.30;99.90;;;;;;5090674;28;19961;-83
2022/09/10 06:03:57;;;;;;;;;;;16.40;99.90;;;;;;5083513;28;19916;-81
2022/09/10 06:06:26;;;;;;;;;;;16.40;99.90;;;;;;5087888;28;19916;-83
2022/09/10 06:08:52;;;;;;;;;;;16.40;99.90;;;;;;5087005;28;20256;-77
2022/09/10 06:11:17;;;;;;;;;;;16.40;99.90;;;;;;5108553;27;19924;-85
2022/09/10 06:13:43;;;;;;;;;;;16.40;99.90;;;;;;5092388;28;19927;-82
2022/09/10 06:16:08;;;;;;;;;;;16.40;99.90;;;;;;5101547;28;19912;-84
2022/09/10 06:18:34;;;;;;;;;;;16.40;99.90;;;;;;5096685;28;19985;-86
2022/09/10 06:21:07;;;;;;;;;;;16.40;99.90;;;;;;5107810;28;20314;-79
2022/09/10 06:23:35;;;;;;;;;;;16.40;99.90;;;;;;5108494;28;19916;-85
2022/09/10 06:26:03;;;;;;;;;;;16.40;99.90;;;;;;5093866;28;19915;-85
2022/09/10 06:28:28;;;;;;;;;;;16.40;99.90;;;;;;5101008;28;19919;-84
2022/09/10 06:30:54;;;;;;;;;;;16.40;99.90;;;;;;5116320;28;19907;-85
2022/09/10 06:33:20;;;;;;;;;;;16.40;99.90;;;;;;5101216;28;19920;-86
2022/09/10 06:35:55;;;;;;;;;;;16.40;99.90;;;;;;5099935;28;19992;-84
2022/09/10 06:38:21;;;;;;;;;;;16.40;99.90;;;;;;5087667;28;20047;-81
2022/09/10 06:40:54;;;;;;;;;;;16.40;99.90;;;;;;5092646;28;19919;-83
2022/09/10 06:43:22;;;;;;;;;;;16.40;99.90;;;;;;5085128;28;19960;-87
2022/09/10 06:45:48;;;;;;;;;;;16.40;99.90;;;;;;5096328;28;19915;-95
2022/09/10 06:48:17;;;;;;;;;;;16.40;99.90;;;;;;5119480;28;20235;-91
2022/09/10 06:51:09;;;;;;;;;;;16.40;99.90;;;;;;5094784;28;19964;-89
2022/09/10 06:53:35;;;;;;;;;;;16.40;99.90;;;;;;5108695;28;19916;-87
2022/09/10 06:56:01;;;;;;;;;;;16.40;99.90;;;;;;5102379;28;19923;-84
2022/09/10 06:58:27;;;;;;;;;;;16.50;99.90;;;;;;5105265;28;19908;-83
2022/09/10 07:00:53;;;;;;;;;;;16.50;99.90;;;;;;5079232;28;20210;-84
2022/09/10 07:03:19;;;;;;;;;;;16.60;99.90;;;;;;5103966;28;20002;-82
2022/09/10 07:05:45;;;;;;;;;;;16.70;99.90;;;;;;5106642;28;20384;-82
2022/09/10 07:08:13;;;;;;;;;;;17.00;99.90;;;;;;5083647;28;19912;-81
2022/09/10 07:10:39;;;;;;;;;;;17.20;99.90;;;;;;5080708;28;19916;-81
2022/09/10 07:13:05;;;;;;;;;;;17.40;99.90;;;;;;5105947;28;19916;-81
2022/09/10 07:15:30;;;;;;;;;;;17.50;99.90;;;;;;5098161;28;20215;-81
2022/09/10 07:17:56;;;;;;;;;;;17.40;99.90;;;;;;5096515;28;20277;-83
2022/09/10 07:20:27;;;;;;;;;;;17.40;99.90;;;;;;5109387;28;19994;-82
2022/09/10 07:22:55;;;;;;;;;;;17.30;99.90;;;;;;5111765;28;19980;-80
2022/09/10 07:25:21;;;;;;;;;;;17.20;99.90;;;;;;5092831;28;20210;-80
2022/09/10 07:27:47;;;;;;;;;;;17.20;99.90;;;;;;5101727;28;19943;-81
2022/09/10 07:30:13;;;;;;;;;;;17.20;99.90;;;;;;5098278;28;19963;-80
2022/09/10 07:32:39;;;;;;;;;;;17.20;99.90;;;;;;5103987;28;19922;-78
2022/09/10 07:35:06;;;;;;;;;;;17.20;99.90;;;;;;5109243;27;20271;-79
2022/09/10 07:37:32;;;;;;;;;;;17.10;99.90;;;;;;5089387;28;19919;-79
2022/09/10 07:39:58;;;;;;;;;;;17.10;99.90;;;;;;5090840;28;19911;-79
2022/09/10 07:42:24;;;;;;;;;;;17.10;99.90;;;;;;5103729;28;19961;-79
2022/09/10 07:44:50;;;;;;;;;;;17.10;99.90;;;;;;5095472;28;19950;-78
2022/09/10 07:47:15;;;;;;;;;;;17.10;99.90;;;;;;5108121;28;19960;-79
2022/09/10 07:49:43;;;;;;;;;;;17.10;99.90;;;;;;5092635;28;20259;-78
2022/09/10 07:52:12;;;;;;;;;;;17.10;99.90;;;;;;5101910;28;19916;-79
2022/09/10 07:54:38;;;;;;;;;;;17.10;99.90;;;;;;5098404;28;19916;-78
2022/09/10 07:57:04;;;;;;;;;;;17.10;99.90;;;;;;5094169;28;20217;-79
2022/09/10 07:59:30;;;;;;;;;;;17.10;99.90;;;;;;5099467;28;19919;-77
2022/09/10 08:01:55;;;;;;;;;;;17.10;99.90;;;;;;5096396;28;19927;-79
2022/09/10 08:04:22;;;;;;;;;;;17.20;99.90;;;;;;5098193;28;20219;-78
2022/09/10 08:06:47;;;;;;;;;;;17.40;99.90;;;;;;5095146;28;19920;-78
2022/09/10 08:09:13;;;;;;;;;;;17.50;99.90;;;;;;5097384;28;19912;-77
2022/09/10 08:11:39;;;;;;;;;;;17.50;99.90;;;;;;5099656;28;19916;-77
2022/09/10 08:14:05;;;;;;;;;;;17.50;99.90;;;;;;5086232;28;20276;-79
2022/09/10 08:16:31;;;;;;;;;;;17.60;99.90;;;;;;5101771;28;20601;-77
2022/09/10 08:18:59;;;;;;;;;;;17.80;99.90;;;;;;5098279;28;19924;-76
2022/09/10 08:21:25;;;;;;;;;;;17.90;99.90;;;;;;5084756;28;19912;-76
2022/09/10 08:23:52;;;;;;;;;;;18.00;99.90;;;;;;5096594;28;20299;-76
2022/09/10 08:26:22;;;;;;;;;;;18.10;99.90;;;;;;5102146;28;19919;-75
2022/09/10 08:28:48;;;;;;;;;;;18.00;99.90;;;;;;5085318;28;19927;-75
2022/09/10 08:31:15;;;;;;;;;;;18.00;99.90;;;;;;5090333;28;19915;-81
2022/09/10 08:33:40;;;;;;;;;;;18.00;99.90;;;;;;5104342;27;19916;-81
2022/09/10 08:36:07;;;;;;;;;;;17.90;99.90;;;;;;5076888;28;19922;-76
2022/09/10 08:38:33;;;;;;;;;;;17.80;99.90;;;;;;5096889;28;19912;-79
2022/09/10 08:41:00;;;;;;;;;;;17.70;99.90;;;;;;5100572;27;20333;-75
2022/09/10 08:43:41;;;;;;;;;;;17.60;99.90;;;;;;5095513;28;19958;-75
2022/09/10 08:46:19;;;;;;;;;;;17.60;99.90;;;;;;5089287;28;19918;-76
2022/09/10 08:48:46;;;;;;;;;;;17.50;99.90;;;;;;5098769;28;20271;-76
2022/09/10 08:51:26;;;;;;;;;;;17.50;99.90;;;;;;5086651;28;19915;-75
2022/09/10 08:53:51;;;;;;;;;;;17.60;99.90;;;;;;5091641;28;19922;-76
2022/09/10 08:56:20;;;;;;;;;;;17.80;99.90;;;;;;5096971;28;19916;-75
2022/09/10 08:58:57;;;;;;;;;;;17.80;99.90;;;;;;5100595;28;20006;-77
2022/09/10 09:01:29;;;;;;;;;;;17.80;99.90;;;;;;5084056;28;20303;-81
2022/09/10 09:03:56;;;;;;;;;;;17.90;99.90;;;;;;5073848;28;19923;-76
2022/09/10 09:06:24;;;;;;;;;;;17.90;99.90;;;;;;5103663;28;20311;-75
2022/09/10 09:08:51;;;;;;;;;;;17.90;99.90;;;;;;5112208;28;20024;-75
2022/09/10 09:11:16;;;;;;;;;;;17.80;99.90;;;;;;5100882;28;19912;-77
2022/09/10 09:13:57;;;;;;;;;;;17.70;99.90;;;;;;5107458;28;19912;-82
2022/09/10 09:16:23;;;;;;;;;;;17.60;99.90;;;;;;5104068;28;19959;-80
2022/09/10 09:18:53;;;;;;;;;;;17.60;99.90;;;;;;5102120;28;19955;-76
2022/09/10 09:21:27;;;;;;;;;;;17.60;99.90;;;;;;5099398;28;20023;-75
2022/09/10 09:23:54;;;;;;;;;;;17.50;99.90;;;;;;5105058;28;19912;-80
2022/09/10 09:26:23;;;;;;;;;;;17.50;99.90;;;;;;5083540;28;19913;-77
2022/09/10 09:28:56;;;;;;;;;;;17.40;99.90;;;;;;5081140;28;19918;-80
2022/09/10 09:31:24;;;;;;;;;;;17.60;99.90;;;;;;5105378;28;19915;-76
2022/09/10 09:33:52;;;;;;;;;;;17.90;99.90;;;;;;5088399;28;19912;-75
2022/09/10 09:36:22;;;;;;;;;;;18.30;99.90;;;;;;5101449;28;19920;-77
2022/09/10 09:38:49;;;;;;;;;;;18.60;99.90;;;;;;5077597;28;19916;-75
2022/09/10 09:41:22;;;;;;;;;;;18.90;99.90;;;;;;5095885;28;19916;-76
2022/09/10 09:43:48;;;;;;;;;;;19.20;99.90;;;;;;5099416;28;19922;-78
2022/09/10 09:46:20;;;;;;;;;;;19.10;99.90;;;;;;5088748;28;20022;-77
2022/09/10 09:48:46;;;;;;;;;;;19.00;99.90;;;;;;5106158;28;19919;-76
2022/09/10 09:51:13;;;;;;;;;;;19.20;99.90;;;;;;5104094;28;19907;-75
2022/09/10 09:53:39;;;;;;;;;;;19.20;99.90;;;;;;5086042;28;19924;-76
2022/09/10 09:56:10;;;;;;;;;;;19.30;99.90;;;;;;5096809;28;20396;-75
2022/09/10 09:58:35;;;;;;;;;;;19.50;99.90;;;;;;5102437;28;20007;-76
2022/09/10 10:01:04;;;;;;;;;;;19.60;99.90;;;;;;5102557;28;20002;-73
2022/09/10 10:03:31;;;;;;;;;;;19.50;99.90;;;;;;5099464;28;19973;-79
2022/09/10 10:06:07;;;;;;;;;;;19.60;99.90;;;;;;5102409;28;19916;-77
2022/09/10 10:08:38;;;;;;;;;;;19.80;99.90;;;;;;5087599;28;19919;-77
2022/09/10 10:11:04;;;;;;;;;;;19.90;99.90;;;;;;5104587;28;19961;-79
2022/09/10 10:13:40;;;;;;;;;;;19.80;99.90;;;;;;5108802;28;19916;-77
2022/09/10 10:16:32;;;;;;;;;;;19.70;99.90;;;;;;5095857;28;19923;-77
2022/09/10 10:18:58;;;;;;;;;;;19.50;99.90;;;;;;5089675;28;19955;-77
2022/09/10 10:21:30;;;;;;;;;;;19.50;99.90;;;;;;5102527;28;20337;-81
2022/09/10 10:23:56;;;;;;;;;;;19.50;99.90;;;;;;5083448;28;19934;-76
2022/09/10 10:26:34;;;;;;;;;;;19.50;99.90;;;;;;5104592;28;20014;-76
2022/09/10 10:29:15;;;;;;;;;;;19.70;99.90;;;;;;5106837;28;19912;-75
2022/09/10 10:31:42;;;;;;;;;;;19.90;99.90;;;;;;5079971;28;19951;-76
2022/09/10 10:34:13;;;;;;;;;;;19.70;99.90;;;;;;5101222;28;19919;-75
2022/09/10 10:36:58;;;;;;;;;;;19.90;99.90;;;;;;5080421;28;20239;-77
2022/09/10 10:39:44;;;;;;;;;;;19.90;99.90;;;;;;5106050;28;19916;-76
2022/09/10 10:42:27;;;;;;;;;;;19.70;99.90;;;;;;5067340;27;19926;-76
2022/09/10 10:44:53;;;;;;;;;;;19.90;99.90;;;;;;5116999;27;19927;-75
2022/09/10 10:47:18;;;;;;;;;;;20.00;99.90;;;;;;5089080;28;20400;-75
2022/09/10 10:49:52;;;;;;;;;;;20.00;99.90;;;;;;5089955;28;19912;-77
2022/09/10 10:52:20;;;;;;;;;;;19.90;99.90;;;;;;5107572;28;19941;-77
2022/09/10 10:54:52;;;;;;;;;;;20.00;99.90;;;;;;5108129;28;19916;-75
2022/09/10 10:57:17;;;;;;;;;;;20.00;99.90;;;;;;5089950;28;19920;-78
2022/09/10 11:00:03;;;;;;;;;;;20.00;99.90;;;;;;5098324;28;19970;-76
2022/09/10 11:02:29;;;;;;;;;;;20.00;99.90;;;;;;5106623;28;19908;-75
2022/09/10 11:04:57;;;;;;;;;;;19.90;99.90;;;;;;5095397;28;19916;-75
2022/09/10 11:07:33;;;;;;;;;;;19.70;99.90;;;;;;5106574;28;19912;-76
2022/09/10 11:09:58;;;;;;;;;;;19.90;99.90;;;;;;5084308;28;19946;-81
2022/09/10 11:12:31;;;;;;;;;;;20.00;99.90;;;;;;5102384;28;19915;-79
2022/09/10 11:15:00;;;;;;;;;;;20.10;99.90;;;;;;5098894;28;19916;-74
2022/09/10 11:17:46;;;;;;;;;;;20.10;99.90;;;;;;5100878;28;19920;-75
2022/09/10 11:20:24;;;;;;;;;;;20.10;99.90;;;;;;5096629;28;19920;-74
2022/09/10 11:22:52;;;;;;;;;;;20.00;99.90;;;;;;5097329;28;19926;-77
2022/09/10 11:25:20;;;;;;;;;;;20.10;99.90;;;;;;5096060;28;20058;-80
2022/09/10 11:27:49;;;;;;;;;;;20.10;99.90;;;;;;5092874;28;19907;-73
2022/09/10 11:30:16;;;;;;;;;;;20.00;99.90;;;;;;5097586;28;19935;-74
2022/09/10 11:32:58;;;;;;;;;;;20.00;99.90;;;;;;5095974;28;19961;-77
2022/09/10 11:35:28;;;;;;;;;;;20.00;99.90;;;;;;5098124;28;19916;-77
2022/09/10 11:38:09;;;;;;;;;;;20.00;99.90;;;;;;5076570;28;19916;-76
2022/09/10 11:40:43;;;;;;;;;;;20.10;99.90;;;;;;5094161;28;19911;-77
2022/09/10 11:43:12;;;;;;;;;;;20.10;99.90;;;;;;5078452;28;20035;-76
2022/09/10 11:45:37;;;;;;;;;;;20.10;99.90;;;;;;5097317;28;19927;-76
2022/09/10 11:48:12;;;;;;;;;;;20.20;99.90;;;;;;5101416;28;19991;-76
2022/09/10 11:50:47;;;;;;;;;;;20.30;99.90;;;;;;5102442;28;19916;-80
2022/09/10 11:53:14;;;;;;;;;;;20.30;99.90;;;;;;5083737;28;19920;-80
2022/09/10 11:55:39;;;;;;;;;;;20.30;99.90;;;;;;5094355;28;20015;-74
2022/09/10 11:58:10;;;;;;;;;;;20.20;99.90;;;;;;5096608;28;20003;-78
2022/09/10 12:00:44;;;;;;;;;;;20.20;99.90;;;;;;5100033;28;20007;-77
2022/09/10 12:03:20;;;;;;;;;;;20.30;99.90;;;;;;5100194;28;19944;-80
2022/09/10 12:05:58;;;;;;;;;;;20.40;99.90;;;;;;5109092;28;20000;-73
2022/09/10 12:08:25;;;;;;;;;;;20.30;99.90;;;;;;5101752;28;19950;-75
2022/09/10 12:11:04;;;;;;;;;;;20.40;99.90;;;;;;5109243;28;19947;-76
2022/09/10 12:13:32;;;;;;;;;;;20.30;99.90;;;;;;5110124;28;19915;-78
2022/09/10 12:16:01;;;;;;;;;;;20.40;99.90;;;;;;5100351;28;19912;-76
2022/09/10 12:18:40;;;;;;;;;;;20.50;99.90;;;;;;5111270;28;20230;-77
2022/09/10 12:21:08;;;;;;;;;;;20.70;99.90;;;;;;5101364;28;20319;-77
2022/09/10 12:23:38;;;;;;;;;;;20.60;99.90;;;;;;5099120;28;19916;-75
2022/09/10 12:26:07;;;;;;;;;;;20.60;99.90;;;;;;5094775;28;19923;-81
2022/09/10 12:28:42;;;;;;;;;;;20.40;99.90;;;;;;5094643;28;19919;-78
2022/09/10 12:31:08;;;;;;;;;;;20.40;99.90;;;;;;5096885;28;19923;-75
2022/09/10 12:33:43;;;;;;;;;;;20.50;99.90;;;;;;5096858;28;19919;-77
2022/09/10 12:36:09;;;;;;;;;;;20.50;99.90;;;;;;5100590;28;20217;-80
2022/09/10 12:38:47;;;;;;;;;;;20.30;99.90;;;;;;5096347;28;20002;-79
2022/09/10 12:41:21;;;;;;;;;;;20.40;99.90;;;;;;5081870;28;19919;-77
2022/09/10 12:43:47;;;;;;;;;;;20.40;99.90;;;;;;5108798;28;19919;-76
2022/09/10 12:46:12;;;;;;;;;;;20.50;99.90;;;;;;5081846;28;19916;-79
2022/09/10 12:48:46;;;;;;;;;;;20.60;99.90;;;;;;5098632;28;20191;-76
2022/09/10 12:51:17;;;;;;;;;;;20.60;99.90;;;;;;5075370;28;20290;-76
2022/09/10 12:54:10;;;;;;;;;;;20.60;99.90;;;;;;5103755;28;19919;-76
2022/09/10 12:56:56;;;;;;;;;;;20.60;99.90;;;;;;5049445;28;19970;-77
2022/09/10 12:59:42;;;;;;;;;;;20.60;99.90;;;;;;5049254;28;19920;-80
2022/09/10 13:02:19;;;;;;;;;;;20.60;99.90;;;;;;5031300;28;19917;-75
2022/09/10 13:04:51;;;;;;;;;;;20.70;99.90;;;;;;5050706;28;19971;-76
2022/09/10 13:07:22;;;;;;;;;;;20.70;99.90;;;;;;5047909;28;19909;-80
2022/09/10 13:09:59;;;;;;;;;;;20.70;99.90;;;;;;5050631;28;19920;-78
2022/09/10 13:12:24;;;;;;;;;;;20.80;99.90;;;;;;5039046;28;19921;-79
2022/09/10 13:14:52;;;;;;;;;;;21.00;99.90;;;;;;5050198;28;20193;-75
2022/09/10 13:17:35;;;;;;;;;;;20.90;99.90;;;;;;5034688;28;20335;-76
2022/09/10 13:20:11;;;;;;;;;;;21.00;99.90;;;;;;5036929;28;19920;-79
2022/09/10 13:22:54;;;;;;;;;;;20.90;99.90;;;;;;5045618;28;20307;-75
2022/09/10 13:25:31;;;;;;;;;;;20.80;99.90;;;;;;5047052;28;20275;-77
2022/09/10 13:27:57;;;;;;;;;;;20.70;99.90;;;;;;5044395;28;19917;-76
2022/09/10 13:30:22;;;;;;;;;;;20.80;99.90;;;;;;5047686;28;19954;-77
2022/09/10 13:32:48;;;;;;;;;;;20.80;99.90;;;;;;5053062;28;20343;-75
2022/09/10 13:35:15;;;;;;;;;;;21.00;99.90;;;;;;5075589;28;19916;-75
2022/09/10 13:37:41;;;;;;;;;;;20.90;99.90;;;;;;5082916;28;20003;-76
2022/09/10 13:40:18;;;;;;;;;;;20.90;99.90;;;;;;5090058;28;20260;-76
2022/09/10 13:43:03;;;;;;;;;;;20.90;99.90;;;;;;5072869;28;20061;-81
2022/09/10 13:45:36;;;;;;;;;;;21.00;99.90;;;;;;5073208;28;19917;-76
2022/09/10 13:48:09;;;;;;;;;;;20.90;99.90;;;;;;5085892;28;20307;-80
2022/09/10 13:50:40;;;;;;;;;;;20.90;99.90;;;;;;5083847;28;19912;-78
2022/09/10 13:53:07;;;;;;;;;;;20.90;99.90;;;;;;5074785;28;20292;-77
2022/09/10 13:55:33;;;;;;;;;;;20.80;99.90;;;;;;5081091;28;19942;-76
2022/09/10 13:58:03;;;;;;;;;;;20.80;99.90;;;;;;5075284;28;19917;-77
2022/09/10 14:00:48;;;;;;;;;;;20.60;99.90;;;;;;5072344;28;19916;-81
2022/09/10 14:03:15;;;;;;;;;;;20.50;99.90;;;;;;5078267;28;19975;-77
2022/09/10 14:05:56;;;;;;;;;;;20.50;99.90;;;;;;5078592;28;19912;-75
2022/09/10 14:08:27;;;;;;;;;;;20.50;99.90;;;;;;5084219;28;19915;-75
2022/09/10 14:10:59;;;;;;;;;;;20.40;99.90;;;;;;5079576;28;20058;-76
2022/09/10 14:13:36;;;;;;;;;;;20.50;99.90;;;;;;5081687;28;19923;-74
2022/09/10 14:16:04;;;;;;;;;;;20.50;99.90;;;;;;5080094;28;19915;-78
2022/09/10 14:18:42;;;;;;;;;;;20.40;99.90;;;;;;5092036;28;19924;-75
2022/09/10 14:21:10;;;;;;;;;;;20.60;99.90;;;;;;5089522;28;19951;-77
2022/09/10 14:23:39;;;;;;;;;;;20.70;99.90;;;;;;5080828;28;19931;-76
2022/09/10 14:26:12;;;;;;;;;;;20.70;99.90;;;;;;5078362;28;19917;-77